Thunder radar more information blitzortung!


Radar de pluja more information rain snow radar


Visita la nostra xarxa de llocs de meteo:

Template documentation
and downloads

And another site



No particular awareness of the weather is required.    There are no Weather-warnings

Pagina Historial Weather Underground text

Diari Resum January 1, 2018 Unitats:  Imperial    Mètric   Tant
« Previous Dia
SegĂźent Dia »
Diari Setmana Mensual Anual Personalitzada
  Maxima: Minima: Media:
Temperatura: TemperatureF °F 45.3 °F 52.7 °F
Punt de rosada: DewpointF °F 28.2 °F 32.8 °F
Humitat: Humidity % 39 % 47 %
Wind Speed: WindSpeedMPH mph 0.0 mph 6.2 mph
RĂ fegues de vent: WindSpeedGustMPH mph - -
Vent:- - WSW
Pression baro: PressureIn in 30.06 in -
Precipitacions: 0.00 in    
Historical Graphs
 
 
Dades de taula per January 1, 2018
Temps Temperatura Punt de rosada Pression baro Vent Wind Speed RĂ fegues de vent Humitat Rainfall Rate (Hourly)
TemperatureF °F DewpointF °F PressureIn in Calm     Humidity % HourlyPrecipIn in
00:02 54.3 °F 38.5 °F 30.06 in WNW 4.6 mph 4.6 mph 55 % 0.00 in
00:04 54.1 °F 38.3 °F 30.06 in West 3.5 mph 3.5 mph 55 % 0.00 in
00:05 46.2 °F 29.5 °F 30.18 in West 3.0 mph 8.0 mph 52 % 0.00 in
00:07 54.1 °F 38.3 °F 30.06 in WSW 2.3 mph 2.3 mph 55 % 0.00 in
00:10 54.0 °F 38.1 °F 30.06 in WNW 3.5 mph 3.5 mph 55 % 0.00 in
00:13 54.0 °F 38.1 °F 30.06 in SSW 4.6 mph 4.6 mph 55 % 0.00 in
00:15 46.2 °F 29.5 °F 30.18 in WSW 6.0 mph 11.0 mph 52 % 0.00 in
00:18 53.8 °F 38.0 °F 30.06 in WSW 4.6 mph 4.6 mph 55 % 0.00 in
00:21 53.6 °F 37.8 °F 30.06 in WSW 6.0 mph 6.0 mph 55 % 0.00 in
00:24 53.6 °F 37.8 °F 30.06 in WSW 6.2 mph 6.2 mph 55 % 0.00 in
00:25 46.4 °F 29.2 °F 30.21 in West 8.0 mph 12.0 mph 51 % 0.00 in
00:35 46.4 °F 29.2 °F 30.21 in West 7.0 mph 11.0 mph 51 % 0.00 in
00:45 46.4 °F 29.2 °F 30.21 in West 7.0 mph 10.0 mph 51 % 0.00 in
00:55 46.2 °F 29.1 °F 30.21 in WSW 8.0 mph 9.0 mph 51 % 0.00 in
01:05 46.2 °F 29.1 °F 30.24 in WSW 7.0 mph 8.0 mph 51 % 0.00 in
01:15 46.0 °F 28.9 °F 30.24 in WSW 6.0 mph 11.0 mph 51 % 0.00 in
01:25 45.9 °F 28.7 °F 30.24 in WSW 6.0 mph 10.0 mph 51 % 0.00 in
01:35 45.9 °F 28.7 °F 30.24 in WSW 5.0 mph 10.0 mph 51 % 0.00 in
01:45 45.7 °F 28.6 °F 30.24 in WSW 5.0 mph 8.0 mph 51 % 0.00 in
01:55 45.7 °F 28.6 °F 30.24 in West 3.0 mph 9.0 mph 51 % 0.00 in
02:05 45.7 °F 28.6 °F 30.24 in West 5.0 mph 8.0 mph 51 % 0.00 in
02:15 45.7 °F 28.6 °F 30.24 in WSW 6.0 mph 8.0 mph 51 % 0.00 in
02:25 45.7 °F 28.6 °F 30.24 in WSW 3.0 mph 6.0 mph 51 % 0.00 in
02:35 45.5 °F 28.4 °F 30.24 in SW 3.0 mph 6.0 mph 51 % 0.00 in
02:45 45.5 °F 28.4 °F 30.24 in SW 3.0 mph 3.0 mph 51 % 0.00 in
02:55 45.3 °F 28.2 °F 30.30 in SSW 3.0 mph 8.0 mph 51 % 0.00 in
03:05 45.5 °F 28.4 °F 30.30 in WSW 3.0 mph 3.0 mph 51 % 0.00 in
03:15 45.9 °F 28.7 °F 30.30 in WSW 5.0 mph 6.0 mph 51 % 0.00 in
03:25 46.4 °F 29.2 °F 30.30 in West 5.0 mph 8.0 mph 51 % 0.00 in
03:35 46.9 °F 29.2 °F 30.30 in West 9.0 mph 13.0 mph 50 % 0.00 in
03:45 47.5 °F 29.7 °F 30.30 in West 6.0 mph 6.0 mph 50 % 0.00 in
03:55 48.0 °F 30.2 °F 30.30 in West 7.0 mph 11.0 mph 50 % 0.00 in
04:05 48.4 °F 30.1 °F 30.30 in WSW 3.0 mph 13.0 mph 49 % 0.00 in
04:15 48.7 °F 30.4 °F 30.30 in West 6.0 mph 8.0 mph 49 % 0.00 in
04:25 49.3 °F 30.9 °F 30.27 in West 5.0 mph 13.0 mph 49 % 0.00 in
04:35 49.5 °F 30.6 °F 30.33 in WSW 8.0 mph 10.0 mph 48 % 0.00 in
04:45 50.0 °F 31.1 °F 30.33 in WSW 7.0 mph 8.0 mph 48 % 0.00 in
04:55 50.0 °F 31.1 °F 30.33 in West 6.0 mph 19.0 mph 48 % 0.00 in
05:05 50.4 °F 30.9 °F 30.33 in West 8.0 mph 13.0 mph 47 % 0.00 in
11:09 50.9 °F 31.4 °F 30.33 in WSW 12.7 mph 12.7 mph 47 % 0.00 in
11:10 50.9 °F 31.4 °F 30.33 in WSW 9.2 mph 9.2 mph 47 % 0.00 in
11:15 51.1 °F 31.5 °F 30.33 in SSW 9.2 mph 9.2 mph 47 % 0.00 in
11:16 51.3 °F 31.7 °F 30.33 in West 9.2 mph 9.2 mph 47 % 0.00 in
11:21 51.4 °F 31.9 °F 30.33 in West 8.5 mph 8.5 mph 47 % 0.00 in
11:23 51.4 °F 31.3 °F 30.33 in WSW 10.4 mph 10.4 mph 46 % 0.00 in
11:28 51.6 °F 31.5 °F 30.33 in WSW 5.8 mph 5.8 mph 46 % 0.00 in
11:33 51.6 °F 31.5 °F 30.33 in WSW 17.6 mph 17.6 mph 46 % 0.00 in
11:37 51.6 °F 31.5 °F 30.30 in West 7.8 mph 7.8 mph 46 % 0.00 in
11:40 51.8 °F 31.7 °F 30.30 in WSW 5.8 mph 5.8 mph 46 % 0.00 in
11:45 52.3 °F 32.2 °F 30.30 in West 5.8 mph 5.8 mph 46 % 0.00 in
11:47 52.5 °F 32.3 °F 30.30 in South 4.6 mph 4.6 mph 46 % 0.00 in
11:50 52.5 °F 32.3 °F 30.30 in WSW 10.4 mph 10.4 mph 46 % 0.00 in
11:56 52.7 °F 32.5 °F 30.30 in WSW 4.6 mph 4.6 mph 46 % 0.00 in
12:00 53.1 °F 32.8 °F 30.30 in WSW 5.8 mph 5.8 mph 46 % 0.00 in
12:01 53.1 °F 32.8 °F 30.30 in WNW 5.8 mph 5.8 mph 46 % 0.00 in
12:06 53.1 °F 32.8 °F 30.30 in West 10.2 mph 10.2 mph 46 % 0.00 in
12:09 52.9 °F 32.1 °F 30.30 in WSW 6.9 mph 6.9 mph 45 % 0.00 in
12:14 53.2 °F 32.4 °F 30.30 in WSW 6.2 mph 6.2 mph 45 % 0.00 in
12:15 53.4 °F 33.1 °F 30.30 in West 5.9 mph 5.9 mph 46 % 0.00 in
12:20 53.6 °F 32.8 °F 30.30 in NNW 5.8 mph 5.8 mph 45 % 0.00 in
12:21 53.6 °F 32.8 °F 30.30 in SE 5.8 mph 5.8 mph 45 % 0.00 in
12:26 54.0 °F 33.1 °F 30.30 in WSW 4.6 mph 4.6 mph 45 % 0.00 in
12:28 54.0 °F 33.1 °F 30.30 in WNW 5.8 mph 5.8 mph 45 % 0.00 in
12:33 54.0 °F 33.1 °F 30.30 in West 5.8 mph 5.8 mph 45 % 0.00 in
12:34 54.0 °F 33.1 °F 30.30 in SSW 6.9 mph 6.9 mph 45 % 0.00 in
12:39 54.3 °F 33.4 °F 30.27 in NW 3.5 mph 3.5 mph 45 % 0.00 in
12:40 54.5 °F 33.6 °F 30.27 in South 3.5 mph 3.5 mph 45 % 0.00 in
12:45 54.9 °F 33.9 °F 30.27 in WSW 5.8 mph 5.8 mph 45 % 0.00 in
12:46 54.9 °F 33.9 °F 30.27 in WSW 5.9 mph 5.9 mph 45 % 0.00 in
12:51 55.2 °F 34.2 °F 30.27 in SE 5.8 mph 5.8 mph 45 % 0.00 in
12:52 55.2 °F 34.2 °F 30.24 in SE 4.6 mph 4.6 mph 45 % 0.00 in
12:57 56.1 °F 35.1 °F 30.24 in WSW 5.6 mph 5.6 mph 45 % 0.00 in
12:59 55.9 °F 34.9 °F 30.24 in NW 6.9 mph 6.9 mph 45 % 0.00 in
13:04 56.3 °F 35.2 °F 30.24 in WSW 4.6 mph 4.6 mph 45 % 0.00 in
13:09 56.1 °F 34.5 °F 30.24 in SW 8.1 mph 8.1 mph 44 % 0.00 in
13:14 55.4 °F 33.8 °F 30.24 in WNW 8.1 mph 8.1 mph 44 % 0.00 in
13:15 55.4 °F 33.8 °F 30.24 in West 5.0 mph 8.0 mph 44 % 0.00 in
13:20 55.2 °F 33.1 °F 30.24 in WNW 4.0 mph 4.0 mph 43 % 0.00 in
13:22 55.2 °F 33.7 °F 30.24 in SW 4.6 mph 4.6 mph 44 % 0.00 in
13:24 55.4 °F 33.8 °F 30.24 in West 4.6 mph 4.6 mph 44 % 0.00 in
13:27 56.1 °F 34.5 °F 30.24 in SW 2.6 mph 2.6 mph 44 % 0.00 in
13:30 56.7 °F 34.4 °F 30.24 in WSW 6.9 mph 6.9 mph 43 % 0.00 in
13:33 56.7 °F 34.4 °F 30.24 in WNW 8.1 mph 8.1 mph 43 % 0.00 in
13:36 56.5 °F 33.6 °F 30.24 in WSW 5.8 mph 5.8 mph 42 % 0.00 in
13:39 56.7 °F 33.8 °F 30.24 in NW 6.9 mph 6.9 mph 42 % 0.00 in
13:44 56.8 °F 34.0 °F 30.24 in WNW 6.9 mph 6.9 mph 42 % 0.00 in
13:45 56.8 °F 34.0 °F 30.24 in SW 6.9 mph 6.9 mph 42 % 0.00 in
13:49 56.7 °F 33.2 °F 30.24 in WSW 5.8 mph 5.8 mph 41 % 0.00 in
13:51 56.5 °F 33.0 °F 30.24 in SW 6.9 mph 6.9 mph 41 % 0.00 in
13:55 56.7 °F 32.6 °F 30.21 in SW 13.8 mph 13.8 mph 40 % 0.00 in
13:57 56.5 °F 32.4 °F 30.21 in West 12.7 mph 12.7 mph 40 % 0.00 in
14:02 56.7 °F 32.6 °F 30.21 in WSW 10.2 mph 10.2 mph 40 % 0.00 in
14:04 56.7 °F 32.6 °F 30.21 in WSW 5.8 mph 5.8 mph 40 % 0.00 in
14:08 56.5 °F 32.4 °F 30.21 in SSE 5.8 mph 5.8 mph 40 % 0.00 in
14:13 56.3 °F 32.3 °F 30.21 in SW 8.1 mph 8.1 mph 40 % 0.00 in
14:18 56.3 °F 32.3 °F 30.21 in SW 8.1 mph 8.1 mph 40 % 0.00 in
14:21 56.5 °F 32.4 °F 30.21 in WSW 8.1 mph 8.1 mph 40 % 0.00 in
14:24 56.7 °F 32.6 °F 30.18 in SW 9.2 mph 9.2 mph 40 % 0.00 in
14:28 56.7 °F 32.6 °F 30.18 in SSW 8.1 mph 8.1 mph 40 % 0.00 in
14:29 56.7 °F 32.6 °F 30.18 in West 9.7 mph 9.7 mph 40 % 0.00 in
14:33 56.5 °F 32.4 °F 30.18 in WSW 5.8 mph 5.8 mph 40 % 0.00 in
14:35 56.5 °F 32.4 °F 30.18 in South 8.1 mph 8.1 mph 40 % 0.00 in
14:40 56.5 °F 32.4 °F 30.18 in WSW 8.1 mph 8.1 mph 40 % 0.00 in
14:42 56.5 °F 33.0 °F 30.18 in WSW 11.4 mph 11.4 mph 41 % 0.00 in
14:44 56.5 °F 32.4 °F 30.18 in West 8.1 mph 8.1 mph 40 % 0.00 in
14:47 56.3 °F 32.3 °F 30.18 in West 8.1 mph 8.1 mph 40 % 0.00 in
14:52 56.1 °F 31.5 °F 30.18 in WSW 15.0 mph 15.0 mph 39 % 0.00 in
14:53 56.1 °F 32.1 °F 30.18 in WSW 11.5 mph 11.5 mph 40 % 0.00 in
14:55 56.3 °F 32.3 °F 30.18 in WSW 8.1 mph 8.1 mph 40 % 0.00 in
14:59 56.3 °F 32.3 °F 30.18 in WNW 10.7 mph 10.7 mph 40 % 0.00 in
15:01 56.1 °F 31.5 °F 30.18 in WSW 12.7 mph 12.7 mph 39 % 0.00 in
15:05 56.1 °F 31.5 °F 30.18 in West 10.4 mph 10.4 mph 39 % 0.00 in
15:10 56.3 °F 31.6 °F 30.18 in SW 9.2 mph 9.2 mph 39 % 0.00 in
15:11 56.3 °F 31.6 °F 30.18 in WNW 9.2 mph 9.2 mph 39 % 0.00 in
15:16 56.5 °F 31.8 °F 30.18 in West 9.2 mph 9.2 mph 39 % 0.00 in
15:19 56.3 °F 31.6 °F 30.18 in WSW 12.7 mph 12.7 mph 39 % 0.00 in
15:22 56.1 °F 31.5 °F 30.18 in SSE 8.1 mph 8.1 mph 39 % 0.00 in
15:27 55.9 °F 31.9 °F 30.18 in WSW 6.4 mph 6.4 mph 40 % 0.00 in
15:28 55.9 °F 31.9 °F 30.18 in WSW 6.4 mph 6.4 mph 40 % 0.00 in
15:33 56.1 °F 32.1 °F 30.18 in SW 5.8 mph 5.8 mph 40 % 0.00 in
15:34 56.1 °F 32.1 °F 30.18 in WSW 5.8 mph 5.8 mph 40 % 0.00 in
15:36 56.5 °F 32.4 °F 30.18 in West 5.4 mph 5.4 mph 40 % 0.00 in
15:41 56.3 °F 32.3 °F 30.15 in South 8.1 mph 8.1 mph 40 % 0.00 in
15:43 56.3 °F 32.3 °F 30.15 in WSW 6.9 mph 6.9 mph 40 % 0.00 in
15:47 56.5 °F 32.4 °F 30.15 in West 9.2 mph 9.2 mph 40 % 0.00 in
15:52 56.8 °F 32.8 °F 30.18 in SW 10.4 mph 10.4 mph 40 % 0.00 in
15:53 56.7 °F 32.6 °F 30.18 in West 10.4 mph 10.4 mph 40 % 0.00 in
15:56 56.3 °F 32.3 °F 30.18 in WSW 6.9 mph 6.9 mph 40 % 0.00 in
16:01 55.8 °F 31.8 °F 30.18 in WSW 7.8 mph 7.8 mph 40 % 0.00 in
16:02 55.8 °F 31.8 °F 30.18 in West 6.9 mph 6.9 mph 40 % 0.00 in
16:03 55.6 °F 31.6 °F 30.18 in West 8.1 mph 8.1 mph 40 % 0.00 in
16:07 55.4 °F 31.5 °F 30.18 in WSW 6.9 mph 6.9 mph 40 % 0.00 in
16:12 55.4 °F 31.5 °F 30.18 in WNW 5.8 mph 5.8 mph 40 % 0.00 in
16:13 55.4 °F 31.5 °F 30.18 in WNW 5.8 mph 5.8 mph 40 % 0.00 in
16:15 55.2 °F 31.3 °F 30.18 in WSW 4.6 mph 4.7 mph 40 % 0.00 in
16:19 55.2 °F 31.3 °F 30.18 in WSW 9.2 mph 9.2 mph 40 % 0.00 in
16:20 55.2 °F 31.3 °F 30.18 in West 5.8 mph 6.4 mph 40 % 0.00 in
16:21 55.0 °F 31.1 °F 30.18 in WNW 5.8 mph 5.8 mph 40 % 0.00 in
16:24 55.2 °F 31.3 °F 30.18 in WSW 10.4 mph 10.4 mph 40 % 0.00 in
16:26 55.2 °F 31.3 °F 30.18 in WNW 10.4 mph 10.4 mph 40 % 0.00 in
16:29 55.0 °F 31.1 °F 30.18 in SW 11.5 mph 11.5 mph 40 % 0.00 in
16:31 55.0 °F 31.1 °F 30.18 in WSW 9.2 mph 9.2 mph 40 % 0.00 in
16:36 55.0 °F 31.1 °F 30.18 in WNW 8.1 mph 8.1 mph 40 % 0.00 in
16:37 55.0 °F 31.1 °F 30.18 in SW 8.1 mph 8.1 mph 40 % 0.00 in
16:42 55.2 °F 31.3 °F 30.18 in SSW 8.1 mph 8.1 mph 40 % 0.00 in
16:47 55.0 °F 31.7 °F 30.18 in WSW 7.1 mph 7.1 mph 41 % 0.00 in
16:48 55.0 °F 31.7 °F 30.18 in WNW 6.9 mph 6.9 mph 41 % 0.00 in
16:51 55.0 °F 31.7 °F 30.18 in WSW 8.1 mph 8.1 mph 41 % 0.00 in
16:53 55.0 °F 31.7 °F 30.18 in WSW 5.9 mph 5.9 mph 41 % 0.00 in
16:58 55.0 °F 31.7 °F 30.18 in WSW 8.1 mph 8.1 mph 41 % 0.00 in
17:00 54.9 °F 31.6 °F 30.18 in WSW 5.8 mph 5.8 mph 41 % 0.00 in
17:05 54.7 °F 31.4 °F 30.18 in WSW 5.8 mph 5.8 mph 41 % 0.00 in
17:08 54.5 °F 31.3 °F 30.15 in SSW 5.8 mph 5.8 mph 41 % 0.00 in
17:10 54.5 °F 31.3 °F 30.15 in WSW 6.2 mph 6.2 mph 41 % 0.00 in
17:11 54.5 °F 31.3 °F 30.15 in SE 6.2 mph 6.2 mph 41 % 0.00 in
17:16 54.3 °F 31.1 °F 30.15 in WSW 4.6 mph 4.6 mph 41 % 0.00 in
17:17 54.1 °F 30.9 °F 30.15 in WSW 5.8 mph 5.8 mph 41 % 0.00 in
17:22 54.0 °F 30.8 °F 30.15 in West 3.5 mph 3.5 mph 41 % 0.00 in
17:23 54.0 °F 30.8 °F 30.15 in West 2.3 mph 2.9 mph 41 % 0.00 in
17:27 53.8 °F 30.6 °F 30.15 in SW 4.0 mph 4.0 mph 41 % 0.00 in
17:28 53.8 °F 30.6 °F 30.15 in West 5.4 mph 5.4 mph 41 % 0.00 in
17:33 53.6 °F 30.4 °F 30.15 in SW 2.6 mph 2.6 mph 41 % 0.00 in
17:34 53.6 °F 30.4 °F 30.15 in SW 7.8 mph 7.8 mph 41 % 0.00 in
17:38 53.6 °F 30.4 °F 30.12 in West 2.3 mph 2.3 mph 41 % 0.00 in
17:43 53.6 °F 31.0 °F 30.12 in WSW 2.3 mph 2.3 mph 42 % 0.00 in
17:44 53.6 °F 31.0 °F 30.12 in WSW 2.3 mph 2.3 mph 42 % 0.00 in
17:49 53.2 °F 30.7 °F 30.12 in SW 1.2 mph 1.2 mph 42 % 0.00 in
17:53 53.2 °F 30.7 °F 30.09 in WSW 1.6 mph   42 % 0.00 in
17:57 53.1 °F 30.6 °F 30.09 in SW 1.4 mph   42 % 0.00 in
18:02 52.9 °F 30.4 °F 30.09 in SW 2.3 mph 2.3 mph 42 % 0.00 in
18:03 52.9 °F 30.4 °F 30.09 in SW 2.4 mph 2.4 mph 42 % 0.00 in
18:08 53.1 °F 30.6 °F 30.12 in SW 3.5 mph 3.5 mph 42 % 0.00 in
18:10 53.1 °F 30.6 °F 30.12 in SW 2.3 mph 2.3 mph 42 % 0.00 in
18:12 53.1 °F 30.6 °F 30.12 in West 2.3 mph 2.3 mph 42 % 0.00 in
18:15 53.1 °F 30.6 °F 30.12 in WSW 2.3 mph 2.3 mph 42 % 0.00 in
18:17 52.9 °F 30.4 °F 30.12 in West 2.3 mph 2.3 mph 42 % 0.00 in
18:19 52.9 °F 30.4 °F 30.12 in SW 2.3 mph 2.3 mph 42 % 0.00 in
18:23 52.7 °F 30.2 °F 30.12 in West 2.3 mph 2.3 mph 42 % 0.00 in
18:28 52.7 °F 30.2 °F 30.12 in West 2.3 mph 2.3 mph 42 % 0.00 in
18:29 52.7 °F 30.2 °F 30.12 in West 1.2 mph   42 % 0.00 in
18:33 52.5 °F 30.6 °F 30.12 in Calm     43 % 0.00 in
18:35 51.8 °F 36.1 °F 30.12 in West 5.0 mph 11.0 mph 55 % 0.00 in
18:36 52.3 °F 30.5 °F 30.12 in WNW 2.4 mph 2.4 mph 43 % 0.00 in
18:39 52.3 °F 30.5 °F 30.09 in Calm     43 % 0.00 in
18:42 52.3 °F 30.5 °F 30.09 in SSE 1.4 mph   43 % 0.00 in
18:45 51.8 °F 36.1 °F 30.12 in WSW 6.0 mph 15.0 mph 55 % 0.00 in
18:47 52.3 °F 30.5 °F 30.09 in WSW 1.2 mph   43 % 0.00 in
18:52 52.0 °F 30.2 °F 30.12 in WSW 1.2 mph   43 % 0.00 in
18:53 52.0 °F 30.2 °F 30.12 in Calm     43 % 0.00 in
18:55 51.8 °F 36.1 °F 30.12 in WSW 6.0 mph 7.0 mph 55 % 0.00 in
18:58 51.8 °F 30.0 °F 30.12 in Calm     43 % 0.00 in
19:00 51.8 °F 30.0 °F 30.12 in WSW 3.5 mph 3.5 mph 43 % 0.00 in
19:05 51.8 °F 30.0 °F 30.12 in North 2.3 mph 2.3 mph 43 % 0.00 in
19:06 51.6 °F 29.8 °F 30.12 in SW 1.2 mph 1.2 mph 43 % 0.00 in
19:11 51.8 °F 30.0 °F 30.12 in WSW 5.8 mph 5.8 mph 43 % 0.00 in
19:15 51.4 °F 35.8 °F 30.15 in WNW 2.0 mph 8.0 mph 55 % 0.00 in
19:16 52.9 °F 31.5 °F 30.12 in NW 2.3 mph 2.3 mph 44 % 0.00 in
19:18 53.1 °F 31.7 °F 30.12 in WNW 8.1 mph 8.1 mph 44 % 0.00 in
19:19 53.2 °F 31.9 °F 30.12 in WSW 6.9 mph 6.9 mph 44 % 0.00 in
19:24 53.8 °F 32.4 °F 30.09 in SW 5.8 mph 5.8 mph 44 % 0.00 in
19:27 54.0 °F 32.5 °F 30.09 in SW 4.6 mph 4.6 mph 44 % 0.00 in
19:31 54.1 °F 32.7 °F 30.09 in WSW 5.8 mph 5.8 mph 44 % 0.00 in
19:35 50.7 °F 36.0 °F 30.18 in Calm   4.0 mph 57 % 0.00 in
19:36 54.3 °F 32.8 °F 30.09 in WNW 2.3 mph 2.3 mph 44 % 0.00 in
19:41 54.1 °F 32.7 °F 30.12 in SW 1.2 mph   44 % 0.00 in
19:42 54.0 °F 32.5 °F 30.12 in ENE 2.2 mph 2.2 mph 44 % 0.00 in
19:47 53.4 °F 32.0 °F 30.12 in ENE 3.5 mph 3.5 mph 44 % 0.00 in
19:48 53.2 °F 31.3 °F 30.12 in ENE 2.3 mph 2.3 mph 43 % 0.00 in
19:53 52.7 °F 30.8 °F 30.12 in East 2.3 mph 2.4 mph 43 % 0.00 in
19:55 50.0 °F 35.8 °F 30.18 in SSW 1.0 mph 3.0 mph 58 % 0.00 in
19:58 52.5 °F 30.6 °F 30.12 in ENE 3.5 mph 3.5 mph 43 % 0.00 in
20:03 52.3 °F 30.5 °F 30.12 in ENE 2.3 mph 2.3 mph 43 % 0.00 in
20:05 50.0 °F 35.8 °F 30.18 in SW 2.0 mph 2.0 mph 58 % 0.00 in
20:08 52.3 °F 31.0 °F 30.12 in West 3.5 mph 3.5 mph 44 % 0.00 in
20:09 52.3 °F 31.0 °F 30.12 in NW 2.3 mph 2.3 mph 44 % 0.00 in
20:14 52.0 °F 30.7 °F 30.12 in WNW 2.3 mph 2.3 mph 44 % 0.00 in
20:15 50.0 °F 36.2 °F 30.18 in SW 3.0 mph 3.0 mph 59 % 0.00 in
20:19 52.3 °F 31.0 °F 30.12 in West 2.6 mph 2.6 mph 44 % 0.00 in
20:21 52.5 °F 31.2 °F 30.12 in WNW 2.3 mph 2.3 mph 44 % 0.00 in
20:25 52.9 °F 32.1 °F 30.12 in WNW 5.8 mph 5.8 mph 45 % 0.00 in
20:26 53.2 °F 32.4 °F 30.12 in WSW 5.8 mph 5.8 mph 45 % 0.00 in
20:30 53.6 °F 32.8 °F 30.12 in WSW 5.8 mph 5.8 mph 45 % 0.00 in
20:32 53.6 °F 33.3 °F 30.12 in West 4.6 mph 4.6 mph 46 % 0.00 in
20:35 50.2 °F 36.8 °F 30.18 in SW 2.0 mph 5.0 mph 60 % 0.00 in
20:37 54.0 °F 33.6 °F 30.12 in SW 5.8 mph 5.8 mph 46 % 0.00 in
20:42 54.1 °F 33.8 °F 30.12 in North 6.9 mph 6.9 mph 46 % 0.00 in
20:44 54.1 °F 33.8 °F 30.12 in WNW 4.6 mph 4.6 mph 46 % 0.00 in
20:45 50.2 °F 36.8 °F 30.18 in SW 3.0 mph 5.0 mph 60 % 0.00 in
20:47 54.1 °F 33.8 °F 30.12 in WSW 4.0 mph 4.0 mph 46 % 0.00 in
20:50 54.1 °F 33.8 °F 30.12 in West 8.1 mph 8.1 mph 46 % 0.00 in
20:52 54.1 °F 33.8 °F 30.12 in SW 5.8 mph 5.8 mph 46 % 0.00 in
20:55 54.1 °F 33.8 °F 30.15 in ESE 10.4 mph 10.4 mph 46 % 0.00 in
21:00 54.3 °F 34.5 °F 30.15 in WSW 6.9 mph 6.9 mph 47 % 0.00 in
21:01 54.1 °F 34.3 °F 30.15 in SW 5.8 mph 5.8 mph 47 % 0.00 in
21:02 54.1 °F 34.3 °F 30.15 in West 3.5 mph 3.5 mph 47 % 0.00 in
21:05 49.8 °F 36.9 °F 30.18 in SW 3.0 mph 4.0 mph 61 % 0.00 in
21:07 54.0 °F 34.2 °F 30.12 in SW 13.8 mph 13.8 mph 47 % 0.00 in
21:09 54.0 °F 34.2 °F 30.12 in NW 5.8 mph 5.8 mph 47 % 0.00 in
21:12 53.8 °F 34.0 °F 30.12 in WSW 4.6 mph 4.6 mph 47 % 0.00 in
21:15 49.6 °F 36.7 °F 30.18 in SW 3.0 mph 3.0 mph 61 % 0.00 in
21:17 53.8 °F 34.0 °F 30.12 in WSW 4.6 mph 4.6 mph 47 % 0.00 in
21:20 53.6 °F 33.8 °F 30.12 in ESE 6.9 mph 6.9 mph 47 % 0.00 in
21:25 53.6 °F 34.4 °F 30.15 in WSW 8.1 mph 8.1 mph 48 % 0.00 in
21:26 53.6 °F 34.4 °F 30.15 in WSW 6.2 mph 6.2 mph 48 % 0.00 in
21:31 53.6 °F 34.4 °F 30.15 in WNW 9.2 mph 9.2 mph 48 % 0.00 in
21:34 53.4 °F 34.2 °F 30.15 in West 6.9 mph 6.9 mph 48 % 0.00 in
21:35 49.3 °F 36.4 °F 30.18 in WSW 3.0 mph 4.0 mph 61 % 0.00 in
21:39 53.4 °F 34.7 °F 30.15 in WSW 6.9 mph 6.9 mph 49 % 0.00 in
21:41 53.4 °F 34.7 °F 30.15 in WSW 10.4 mph 10.4 mph 49 % 0.00 in
21:44 53.4 °F 35.2 °F 30.15 in SW 10.4 mph 10.4 mph 50 % 0.00 in
21:45 49.5 °F 36.6 °F 30.18 in WSW 5.0 mph 5.0 mph 61 % 0.00 in
21:49 53.2 °F 35.1 °F 30.15 in WNW 6.9 mph 6.9 mph 50 % 0.00 in
21:54 53.2 °F 35.6 °F 30.15 in WSW 9.2 mph 9.2 mph 51 % 0.00 in
21:55 49.1 °F 36.2 °F 30.18 in WSW 3.0 mph 4.0 mph 61 % 0.00 in
21:59 53.1 °F 35.4 °F 30.15 in WNW 8.1 mph 8.1 mph 51 % 0.00 in
22:00 53.1 °F 35.4 °F 30.15 in North 8.1 mph 8.1 mph 51 % 0.00 in
22:01 53.1 °F 35.4 °F 30.15 in SW 9.2 mph 9.2 mph 51 % 0.00 in
22:05 53.1 °F 35.4 °F 30.15 in West 8.1 mph 8.1 mph 51 % 0.00 in
22:08 52.9 °F 35.7 °F 30.15 in West 6.0 mph 6.0 mph 52 % 0.00 in
22:11 52.9 °F 35.7 °F 30.15 in NW 9.2 mph 9.2 mph 52 % 0.00 in
22:15 48.9 °F 36.1 °F 30.18 in WSW 2.0 mph 3.0 mph 61 % 0.00 in
22:16 52.7 °F 35.6 °F 30.15 in WNW 10.4 mph 10.4 mph 52 % 0.00 in
22:17 52.7 °F 35.6 °F 30.15 in WSW 11.5 mph 11.5 mph 52 % 0.00 in
22:18 52.7 °F 35.6 °F 30.15 in West 11.5 mph 11.5 mph 52 % 0.00 in
22:23 52.7 °F 36.0 °F 30.18 in West 12.7 mph 12.7 mph 53 % 0.00 in
22:24 52.7 °F 36.0 °F 30.18 in WSW 10.5 mph 10.5 mph 53 % 0.00 in
22:25 48.9 °F 36.1 °F 30.18 in WSW 6.0 mph 6.0 mph 61 % 0.00 in
22:26 52.5 °F 35.9 °F 30.18 in West 6.9 mph 6.9 mph 53 % 0.00 in
22:31 52.5 °F 35.9 °F 30.18 in WNW 12.7 mph 12.7 mph 53 % 0.00 in
22:32 52.5 °F 35.9 °F 30.18 in WSW 11.5 mph 11.5 mph 53 % 0.00 in
22:35 48.7 °F 35.5 °F 30.18 in WSW 3.0 mph 5.0 mph 60 % 0.00 in
22:37 52.3 °F 36.2 °F 30.15 in West 11.5 mph 11.5 mph 54 % 0.00 in
22:38 52.3 °F 36.2 °F 30.15 in West 8.1 mph 8.1 mph 54 % 0.00 in
22:43 52.2 °F 36.0 °F 30.15 in WSW 6.9 mph 6.9 mph 54 % 0.00 in
22:45 48.6 °F 35.3 °F 30.18 in WSW 3.0 mph 7.0 mph 60 % 0.00 in
22:48 52.0 °F 35.8 °F 30.15 in SW 6.9 mph 6.9 mph 54 % 0.00 in
22:49 52.0 °F 35.8 °F 30.15 in WNW 6.7 mph 6.7 mph 54 % 0.00 in
22:54 52.0 °F 36.3 °F 30.15 in West 12.7 mph 12.7 mph 55 % 0.00 in
22:55 52.0 °F 36.3 °F 30.15 in West 6.0 mph 13.0 mph 55 % 0.00 in
22:59 52.0 °F 36.3 °F 30.15 in West 9.2 mph 9.2 mph 55 % 0.00 in
23:00 51.8 °F 36.1 °F 30.15 in West 6.9 mph 6.9 mph 55 % 0.00 in
23:05 51.8 °F 36.1 °F 30.15 in WSW 9.2 mph 9.2 mph 55 % 0.00 in
23:07 51.8 °F 36.6 °F 30.18 in West 10.4 mph 10.4 mph 56 % 0.00 in
23:12 51.6 °F 36.4 °F 30.18 in WNW 8.1 mph 8.1 mph 56 % 0.00 in
23:14 51.6 °F 36.4 °F 30.18 in SSW 10.4 mph 10.4 mph 56 % 0.00 in
23:15 49.1 °F 35.4 °F 30.18 in WSW 6.0 mph 6.0 mph 59 % 0.00 in
23:19 51.6 °F 36.4 °F 30.18 in WSW 8.1 mph 8.1 mph 56 % 0.00 in
23:20 51.6 °F 36.4 °F 30.18 in West 7.4 mph 7.4 mph 56 % 0.00 in
23:21 51.6 °F 36.4 °F 30.18 in SW 7.6 mph 7.6 mph 56 % 0.00 in
23:25 51.4 °F 36.3 °F 30.18 in West 10.4 mph 10.4 mph 56 % 0.00 in
23:26 51.4 °F 36.3 °F 30.18 in WNW 8.1 mph 8.1 mph 56 % 0.00 in
23:31 51.4 °F 36.3 °F 30.18 in WSW 6.9 mph 6.9 mph 56 % 0.00 in
23:33 51.4 °F 36.3 °F 30.18 in West 10.4 mph 10.4 mph 56 % 0.00 in
23:35 48.7 °F 35.0 °F 30.18 in West 3.0 mph 4.0 mph 59 % 0.00 in
23:36 51.4 °F 36.3 °F 30.18 in WSW 10.4 mph 10.4 mph 56 % 0.00 in
23:40 51.4 °F 36.3 °F 30.15 in West 7.0 mph 11.0 mph 56 % 0.00 in
23:44 51.4 °F 36.3 °F 30.15 in WNW 5.8 mph 6.7 mph 56 % 0.00 in
23:45 51.4 °F 36.3 °F 30.15 in West 9.7 mph 9.7 mph 56 % 0.00 in
23:49 51.4 °F 36.3 °F 30.15 in West 10.4 mph 10.4 mph 56 % 0.00 in
23:51 51.4 °F 36.3 °F 30.15 in WNW 10.4 mph 10.4 mph 56 % 0.00 in
23:55 48.0 °F 34.4 °F 30.18 in West 3.0 mph 4.0 mph 59 % 0.00 in
23:56 51.4 °F 36.3 °F 30.15 in WNW 11.5 mph 11.5 mph 56 % 0.00 in
23:57 51.6 °F 36.4 °F 30.15 in WSW 10.4 mph 10.4 mph 56 % 0.00 in
Meteo Sesrovires
Elogis d' Weather Underground - 1.75 mb

Guio original per  Jim McMurry - jmcmurry@mwt.net Adaptat per a la plantilla per  Wim van der Kuil - Leuven-Template.eu

Trobareu la nostra informacio del temps tambe a:

Weather Underground

AWEKAS